sensor_id;sensor_type;location;lat;lon;timestamp;P1;durP1;ratioP1;P2;durP2;ratioP2
2854;SDS011;1435;49.472;10.940;2024-01-16T00:04:27;4.33;;;3.93;;
2854;SDS011;1435;49.472;10.940;2024-01-16T00:09:32;8.13;;;4.70;;
2854;SDS011;1435;49.472;10.940;2024-01-16T00:14:35;8.00;;;3.97;;
2854;SDS011;1435;49.472;10.940;2024-01-16T00:19:38;5.03;;;4.27;;
2854;SDS011;1435;49.472;10.940;2024-01-16T00:24:41;7.20;;;4.40;;
2854;SDS011;1435;49.472;10.940;2024-01-16T00:29:42;4.80;;;4.40;;
2854;SDS011;1435;49.472;10.940;2024-01-16T00:34:45;7.60;;;4.57;;
2854;SDS011;1435;49.472;10.940;2024-01-16T00:39:47;5.90;;;3.33;;
2854;SDS011;1435;49.472;10.940;2024-01-16T00:44:49;4.47;;;3.97;;
2854;SDS011;1435;49.472;10.940;2024-01-16T00:49:52;5.30;;;4.03;;
2854;SDS011;1435;49.472;10.940;2024-01-16T00:54:54;6.07;;;3.40;;
2854;SDS011;1435;49.472;10.940;2024-01-16T00:59:56;4.03;;;3.13;;
2854;SDS011;1435;49.472;10.940;2024-01-16T01:04:59;7.23;;;4.23;;
2854;SDS011;1435;49.472;10.940;2024-01-16T01:10:00;5.37;;;4.57;;
2854;SDS011;1435;49.472;10.940;2024-01-16T01:15:03;5.90;;;5.30;;
2854;SDS011;1435;49.472;10.940;2024-01-16T01:20:08;6.60;;;4.43;;
2854;SDS011;1435;49.472;10.940;2024-01-16T01:25:12;5.53;;;5.00;;
2854;SDS011;1435;49.472;10.940;2024-01-16T01:30:14;4.43;;;4.03;;
2854;SDS011;1435;49.472;10.940;2024-01-16T01:35:17;8.90;;;5.90;;
2854;SDS011;1435;49.472;10.940;2024-01-16T01:40:20;6.03;;;5.47;;
2854;SDS011;1435;49.472;10.940;2024-01-16T01:45:21;8.20;;;4.73;;
2854;SDS011;1435;49.472;10.940;2024-01-16T01:50:24;6.93;;;5.50;;
2854;SDS011;1435;49.472;10.940;2024-01-16T01:55:26;5.20;;;4.70;;
2854;SDS011;1435;49.472;10.940;2024-01-16T02:00:28;8.93;;;5.20;;
2854;SDS011;1435;49.472;10.940;2024-01-16T02:05:31;6.57;;;5.93;;
2854;SDS011;1435;49.472;10.940;2024-01-16T02:10:34;6.37;;;4.73;;
2854;SDS011;1435;49.472;10.940;2024-01-16T02:15:38;11.60;;;5.70;;
2854;SDS011;1435;49.472;10.940;2024-01-16T02:20:42;9.20;;;5.90;;
2854;SDS011;1435;49.472;10.940;2024-01-16T02:25:46;4.67;;;4.27;;
2854;SDS011;1435;49.472;10.940;2024-01-16T02:30:48;6.30;;;4.57;;
2854;SDS011;1435;49.472;10.940;2024-01-16T02:35:49;7.93;;;5.30;;
2854;SDS011;1435;49.472;10.940;2024-01-16T02:40:52;5.53;;;5.03;;
2854;SDS011;1435;49.472;10.940;2024-01-16T02:45:54;6.57;;;5.07;;
2854;SDS011;1435;49.472;10.940;2024-01-16T02:50:55;6.60;;;3.57;;
2854;SDS011;1435;49.472;10.940;2024-01-16T02:55:58;7.03;;;4.30;;
2854;SDS011;1435;49.472;10.940;2024-01-16T03:01:00;4.87;;;4.40;;
2854;SDS011;1435;49.472;10.940;2024-01-16T03:06:02;4.60;;;4.10;;
2854;SDS011;1435;49.472;10.940;2024-01-16T03:11:06;6.20;;;5.17;;
2854;SDS011;1435;49.472;10.940;2024-01-16T03:16:08;4.90;;;4.30;;
2854;SDS011;1435;49.472;10.940;2024-01-16T03:21:10;6.60;;;3.90;;
2854;SDS011;1435;49.472;10.940;2024-01-16T03:26:15;5.77;;;5.27;;
2854;SDS011;1435;49.472;10.940;2024-01-16T03:31:17;8.13;;;5.10;;
2854;SDS011;1435;49.472;10.940;2024-01-16T03:36:21;11.97;;;6.27;;
2854;SDS011;1435;49.472;10.940;2024-01-16T03:41:24;6.80;;;5.13;;
2854;SDS011;1435;49.472;10.940;2024-01-16T03:46:26;5.27;;;4.77;;
2854;SDS011;1435;49.472;10.940;2024-01-16T03:51:27;6.17;;;5.40;;
2854;SDS011;1435;49.472;10.940;2024-01-16T03:56:30;8.13;;;5.57;;
2854;SDS011;1435;49.472;10.940;2024-01-16T04:01:32;5.40;;;4.87;;
2854;SDS011;1435;49.472;10.940;2024-01-16T04:06:36;6.80;;;5.40;;
2854;SDS011;1435;49.472;10.940;2024-01-16T04:11:39;7.00;;;5.60;;
2854;SDS011;1435;49.472;10.940;2024-01-16T04:16:41;5.67;;;4.80;;
2854;SDS011;1435;49.472;10.940;2024-01-16T04:21:43;5.70;;;5.10;;
2854;SDS011;1435;49.472;10.940;2024-01-16T04:26:46;9.33;;;6.00;;
2854;SDS011;1435;49.472;10.940;2024-01-16T04:31:47;7.33;;;6.23;;
2854;SDS011;1435;49.472;10.940;2024-01-16T04:36:49;8.83;;;5.53;;
2854;SDS011;1435;49.472;10.940;2024-01-16T04:41:52;4.77;;;4.33;;
2854;SDS011;1435;49.472;10.940;2024-01-16T04:46:54;6.77;;;4.33;;
2854;SDS011;1435;49.472;10.940;2024-01-16T04:51:55;14.50;;;5.67;;
2854;SDS011;1435;49.472;10.940;2024-01-16T04:56:58;9.40;;;5.27;;
2854;SDS011;1435;49.472;10.940;2024-01-16T05:02:00;6.03;;;5.13;;
2854;SDS011;1435;49.472;10.940;2024-01-16T05:07:02;5.80;;;4.20;;
2854;SDS011;1435;49.472;10.940;2024-01-16T05:12:05;7.50;;;5.53;;
2854;SDS011;1435;49.472;10.940;2024-01-16T05:17:07;5.23;;;4.70;;
2854;SDS011;1435;49.472;10.940;2024-01-16T05:22:09;8.00;;;6.13;;
2854;SDS011;1435;49.472;10.940;2024-01-16T05:27:12;8.13;;;4.57;;
2854;SDS011;1435;49.472;10.940;2024-01-16T05:32:14;6.40;;;5.43;;
2854;SDS011;1435;49.472;10.940;2024-01-16T05:37:16;8.50;;;5.70;;
2854;SDS011;1435;49.472;10.940;2024-01-16T05:42:19;8.73;;;6.17;;
2854;SDS011;1435;49.472;10.940;2024-01-16T05:47:21;9.70;;;5.33;;
2854;SDS011;1435;49.472;10.940;2024-01-16T05:52:24;5.23;;;4.80;;
2854;SDS011;1435;49.472;10.940;2024-01-16T05:57:27;5.57;;;4.97;;
2854;SDS011;1435;49.472;10.940;2024-01-16T06:02:28;6.97;;;4.70;;
2854;SDS011;1435;49.472;10.940;2024-01-16T06:07:30;6.47;;;5.07;;
2854;SDS011;1435;49.472;10.940;2024-01-16T06:12:33;6.53;;;5.93;;
2854;SDS011;1435;49.472;10.940;2024-01-16T06:17:35;7.07;;;5.87;;
2854;SDS011;1435;49.472;10.940;2024-01-16T06:22:37;6.30;;;4.83;;
2854;SDS011;1435;49.472;10.940;2024-01-16T06:27:41;7.60;;;6.50;;
2854;SDS011;1435;49.472;10.940;2024-01-16T06:32:42;8.77;;;5.77;;
2854;SDS011;1435;49.472;10.940;2024-01-16T06:37:44;11.57;;;6.10;;
2854;SDS011;1435;49.472;10.940;2024-01-16T06:42:47;9.70;;;5.57;;
2854;SDS011;1435;49.472;10.940;2024-01-16T06:47:49;6.70;;;5.33;;
2854;SDS011;1435;49.472;10.940;2024-01-16T06:52:51;10.73;;;5.10;;
2854;SDS011;1435;49.472;10.940;2024-01-16T06:57:54;8.33;;;5.70;;
2854;SDS011;1435;49.472;10.940;2024-01-16T07:02:56;8.87;;;6.90;;
2854;SDS011;1435;49.472;10.940;2024-01-16T07:07:58;12.23;;;6.10;;
2854;SDS011;1435;49.472;10.940;2024-01-16T07:13:01;8.93;;;5.60;;
2854;SDS011;1435;49.472;10.940;2024-01-16T07:18:03;8.30;;;5.77;;
2854;SDS011;1435;49.472;10.940;2024-01-16T07:23:05;5.87;;;5.10;;
2854;SDS011;1435;49.472;10.940;2024-01-16T07:28:08;9.40;;;6.17;;
2854;SDS011;1435;49.472;10.940;2024-01-16T07:33:11;11.77;;;5.70;;
2854;SDS011;1435;49.472;10.940;2024-01-16T07:38:12;5.73;;;5.13;;
2854;SDS011;1435;49.472;10.940;2024-01-16T07:43:15;4.60;;;3.93;;
2854;SDS011;1435;49.472;10.940;2024-01-16T07:48:17;5.90;;;5.50;;
2854;SDS011;1435;49.472;10.940;2024-01-16T07:53:19;6.93;;;6.27;;
2854;SDS011;1435;49.472;10.940;2024-01-16T07:58:22;5.20;;;4.20;;
2854;SDS011;1435;49.472;10.940;2024-01-16T08:03:23;7.23;;;5.40;;
2854;SDS011;1435;49.472;10.940;2024-01-16T08:08:25;9.47;;;5.60;;
2854;SDS011;1435;49.472;10.940;2024-01-16T08:13:29;6.60;;;5.57;;
2854;SDS011;1435;49.472;10.940;2024-01-16T08:18:31;9.87;;;6.20;;
2854;SDS011;1435;49.472;10.940;2024-01-16T08:23:33;9.03;;;5.47;;
2854;SDS011;1435;49.472;10.940;2024-01-16T08:28:36;6.60;;;5.63;;
2854;SDS011;1435;49.472;10.940;2024-01-16T08:33:38;7.27;;;5.70;;
2854;SDS011;1435;49.472;10.940;2024-01-16T08:38:40;6.37;;;5.07;;
2854;SDS011;1435;49.472;10.940;2024-01-16T08:43:43;12.23;;;5.33;;
2854;SDS011;1435;49.472;10.940;2024-01-16T08:48:44;7.60;;;5.27;;
2854;SDS011;1435;49.472;10.940;2024-01-16T08:53:46;6.53;;;4.63;;
2854;SDS011;1435;49.472;10.940;2024-01-16T08:58:49;7.90;;;4.97;;
2854;SDS011;1435;49.472;10.940;2024-01-16T09:03:51;8.67;;;5.70;;
2854;SDS011;1435;49.472;10.940;2024-01-16T09:08:52;6.80;;;5.43;;
2854;SDS011;1435;49.472;10.940;2024-01-16T09:13:57;8.90;;;6.60;;
2854;SDS011;1435;49.472;10.940;2024-01-16T09:18:59;5.57;;;5.00;;
2854;SDS011;1435;49.472;10.940;2024-01-16T09:24:01;9.00;;;6.10;;
2854;SDS011;1435;49.472;10.940;2024-01-16T09:29:04;7.20;;;5.60;;
2854;SDS011;1435;49.472;10.940;2024-01-16T09:34:06;6.20;;;4.70;;
2854;SDS011;1435;49.472;10.940;2024-01-16T09:39:07;11.30;;;6.10;;
2854;SDS011;1435;49.472;10.940;2024-01-16T09:44:12;6.20;;;5.60;;
2854;SDS011;1435;49.472;10.940;2024-01-16T09:49:14;10.63;;;5.43;;
2854;SDS011;1435;49.472;10.940;2024-01-16T09:54:16;5.80;;;4.80;;
2854;SDS011;1435;49.472;10.940;2024-01-16T09:59:19;8.17;;;5.40;;
2854;SDS011;1435;49.472;10.940;2024-01-16T10:04:22;8.37;;;5.67;;
2854;SDS011;1435;49.472;10.940;2024-01-16T10:09:24;6.63;;;4.47;;
2854;SDS011;1435;49.472;10.940;2024-01-16T10:14:27;6.80;;;5.43;;
2854;SDS011;1435;49.472;10.940;2024-01-16T10:19:29;8.53;;;6.10;;
2854;SDS011;1435;49.472;10.940;2024-01-16T10:24:31;6.47;;;5.67;;
2854;SDS011;1435;49.472;10.940;2024-01-16T10:29:36;7.73;;;6.00;;
2854;SDS011;1435;49.472;10.940;2024-01-16T10:34:46;6.87;;;4.60;;
2854;SDS011;1435;49.472;10.940;2024-01-16T10:39:49;7.80;;;5.60;;
2854;SDS011;1435;49.472;10.940;2024-01-16T10:44:55;7.57;;;5.00;;
2854;SDS011;1435;49.472;10.940;2024-01-16T10:49:57;5.43;;;4.00;;
2854;SDS011;1435;49.472;10.940;2024-01-16T10:54:59;5.40;;;4.90;;
2854;SDS011;1435;49.472;10.940;2024-01-16T11:00:06;7.93;;;5.40;;
2854;SDS011;1435;49.472;10.940;2024-01-16T11:05:14;6.60;;;4.87;;
2854;SDS011;1435;49.472;10.940;2024-01-16T11:10:18;7.23;;;4.47;;
2854;SDS011;1435;49.472;10.940;2024-01-16T11:15:22;6.60;;;4.90;;
2854;SDS011;1435;49.472;10.940;2024-01-16T11:20:25;6.07;;;4.00;;
2854;SDS011;1435;49.472;10.940;2024-01-16T11:25:30;7.07;;;4.70;;
2854;SDS011;1435;49.472;10.940;2024-01-16T11:30:34;5.07;;;4.60;;
2854;SDS011;1435;49.472;10.940;2024-01-16T11:35:36;4.63;;;4.23;;
2854;SDS011;1435;49.472;10.940;2024-01-16T11:40:39;10.10;;;4.70;;
2854;SDS011;1435;49.472;10.940;2024-01-16T11:45:48;5.93;;;4.50;;
2854;SDS011;1435;49.472;10.940;2024-01-16T11:50:53;3.23;;;2.87;;
2854;SDS011;1435;49.472;10.940;2024-01-16T11:55:57;7.87;;;3.60;;
2854;SDS011;1435;49.472;10.940;2024-01-16T12:01:22;6.07;;;3.90;;
2854;SDS011;1435;49.472;10.940;2024-01-16T12:06:24;4.63;;;3.70;;
2854;SDS011;1435;49.472;10.940;2024-01-16T12:11:26;6.13;;;3.93;;
2854;SDS011;1435;49.472;10.940;2024-01-16T12:16:29;5.83;;;3.60;;
2854;SDS011;1435;49.472;10.940;2024-01-16T12:21:32;5.50;;;4.03;;
2854;SDS011;1435;49.472;10.940;2024-01-16T12:26:34;5.07;;;3.50;;
2854;SDS011;1435;49.472;10.940;2024-01-16T12:31:37;3.53;;;2.97;;
2854;SDS011;1435;49.472;10.940;2024-01-16T12:36:39;5.73;;;4.00;;
2854;SDS011;1435;49.472;10.940;2024-01-16T12:41:41;5.80;;;3.30;;
2854;SDS011;1435;49.472;10.940;2024-01-16T12:46:47;8.03;;;3.60;;
2854;SDS011;1435;49.472;10.940;2024-01-16T12:57:19;3.93;;;2.80;;
2854;SDS011;1435;49.472;10.940;2024-01-16T13:02:23;5.97;;;3.90;;
2854;SDS011;1435;49.472;10.940;2024-01-16T13:07:26;5.47;;;3.80;;
2854;SDS011;1435;49.472;10.940;2024-01-16T13:12:27;8.73;;;4.30;;
2854;SDS011;1435;49.472;10.940;2024-01-16T13:17:34;3.97;;;3.57;;
2854;SDS011;1435;49.472;10.940;2024-01-16T13:22:36;4.13;;;3.30;;
2854;SDS011;1435;49.472;10.940;2024-01-16T13:27:38;5.00;;;3.67;;
2854;SDS011;1435;49.472;10.940;2024-01-16T13:32:41;5.93;;;3.63;;
2854;SDS011;1435;49.472;10.940;2024-01-16T13:37:42;4.80;;;2.97;;
2854;SDS011;1435;49.472;10.940;2024-01-16T13:42:44;5.13;;;3.60;;
2854;SDS011;1435;49.472;10.940;2024-01-16T13:47:47;3.77;;;3.40;;
2854;SDS011;1435;49.472;10.940;2024-01-16T13:52:49;3.90;;;3.60;;
2854;SDS011;1435;49.472;10.940;2024-01-16T13:57:51;5.87;;;3.57;;
2854;SDS011;1435;49.472;10.940;2024-01-16T14:02:54;5.40;;;3.60;;
2854;SDS011;1435;49.472;10.940;2024-01-16T14:07:56;5.57;;;3.53;;
2854;SDS011;1435;49.472;10.940;2024-01-16T14:12:57;4.00;;;3.57;;
2854;SDS011;1435;49.472;10.940;2024-01-16T14:18:00;3.47;;;3.10;;
2854;SDS011;1435;49.472;10.940;2024-01-16T14:23:03;4.10;;;3.80;;
2854;SDS011;1435;49.472;10.940;2024-01-16T14:28:04;3.17;;;2.97;;
2854;SDS011;1435;49.472;10.940;2024-01-16T14:33:08;4.80;;;3.10;;
2854;SDS011;1435;49.472;10.940;2024-01-16T14:38:09;5.43;;;3.07;;
2854;SDS011;1435;49.472;10.940;2024-01-16T14:43:11;4.40;;;3.27;;
2854;SDS011;1435;49.472;10.940;2024-01-16T14:48:16;3.80;;;2.67;;
2854;SDS011;1435;49.472;10.940;2024-01-16T14:53:17;6.10;;;3.73;;
2854;SDS011;1435;49.472;10.940;2024-01-16T14:58:19;6.50;;;2.93;;
2854;SDS011;1435;49.472;10.940;2024-01-16T15:03:24;3.83;;;3.37;;
2854;SDS011;1435;49.472;10.940;2024-01-16T15:08:26;5.53;;;3.60;;
2854;SDS011;1435;49.472;10.940;2024-01-16T15:13:28;5.27;;;3.40;;
2854;SDS011;1435;49.472;10.940;2024-01-16T15:18:31;6.93;;;3.77;;
2854;SDS011;1435;49.472;10.940;2024-01-16T15:23:33;2.70;;;2.50;;
2854;SDS011;1435;49.472;10.940;2024-01-16T15:28:34;4.50;;;3.50;;
2854;SDS011;1435;49.472;10.940;2024-01-16T15:33:37;2.83;;;2.53;;
2854;SDS011;1435;49.472;10.940;2024-01-16T15:38:39;4.17;;;3.20;;
2854;SDS011;1435;49.472;10.940;2024-01-16T15:43:41;3.40;;;2.70;;
2854;SDS011;1435;49.472;10.940;2024-01-16T15:48:44;5.63;;;2.83;;
2854;SDS011;1435;49.472;10.940;2024-01-16T15:53:45;3.40;;;2.87;;
2854;SDS011;1435;49.472;10.940;2024-01-16T15:58:47;3.60;;;3.20;;
2854;SDS011;1435;49.472;10.940;2024-01-16T16:03:51;7.80;;;3.20;;
2854;SDS011;1435;49.472;10.940;2024-01-16T16:08:52;2.70;;;2.47;;
2854;SDS011;1435;49.472;10.940;2024-01-16T16:13:54;5.97;;;2.63;;
2854;SDS011;1435;49.472;10.940;2024-01-16T16:18:57;5.40;;;3.40;;
2854;SDS011;1435;49.472;10.940;2024-01-16T16:23:58;3.00;;;2.80;;
2854;SDS011;1435;49.472;10.940;2024-01-16T16:29:00;3.33;;;2.37;;
2854;SDS011;1435;49.472;10.940;2024-01-16T16:34:05;2.90;;;1.93;;
2854;SDS011;1435;49.472;10.940;2024-01-16T16:39:07;3.00;;;2.80;;
2854;SDS011;1435;49.472;10.940;2024-01-16T16:44:09;3.80;;;3.30;;
2854;SDS011;1435;49.472;10.940;2024-01-16T16:49:12;3.40;;;3.00;;
2854;SDS011;1435;49.472;10.940;2024-01-16T16:54:13;4.17;;;2.57;;
2854;SDS011;1435;49.472;10.940;2024-01-16T16:59:15;3.47;;;2.30;;
2854;SDS011;1435;49.472;10.940;2024-01-16T17:04:18;3.20;;;2.67;;
2854;SDS011;1435;49.472;10.940;2024-01-16T17:09:20;4.07;;;3.67;;
2854;SDS011;1435;49.472;10.940;2024-01-16T17:14:22;6.13;;;3.07;;
2854;SDS011;1435;49.472;10.940;2024-01-16T17:19:25;5.67;;;3.33;;
2854;SDS011;1435;49.472;10.940;2024-01-16T17:24:26;2.93;;;2.50;;
2854;SDS011;1435;49.472;10.940;2024-01-16T17:29:28;3.07;;;2.77;;
2854;SDS011;1435;49.472;10.940;2024-01-16T17:34:31;8.23;;;3.63;;
2854;SDS011;1435;49.472;10.940;2024-01-16T17:39:34;6.07;;;5.30;;
2854;SDS011;1435;49.472;10.940;2024-01-16T17:44:45;7.00;;;4.03;;
2854;SDS011;1435;49.472;10.940;2024-01-16T17:49:48;6.63;;;4.03;;
2854;SDS011;1435;49.472;10.940;2024-01-16T17:54:50;4.43;;;3.80;;
2854;SDS011;1435;49.472;10.940;2024-01-16T17:59:52;8.57;;;4.37;;
2854;SDS011;1435;49.472;10.940;2024-01-16T18:04:56;5.67;;;4.30;;
2854;SDS011;1435;49.472;10.940;2024-01-16T18:09:57;7.90;;;3.30;;
2854;SDS011;1435;49.472;10.940;2024-01-16T18:14:59;5.23;;;4.07;;
2854;SDS011;1435;49.472;10.940;2024-01-16T18:20:02;4.60;;;3.90;;
2854;SDS011;1435;49.472;10.940;2024-01-16T18:25:09;5.03;;;3.87;;
2854;SDS011;1435;49.472;10.940;2024-01-16T18:30:14;3.73;;;3.37;;
2854;SDS011;1435;49.472;10.940;2024-01-16T18:35:18;4.33;;;3.93;;
2854;SDS011;1435;49.472;10.940;2024-01-16T18:40:19;6.60;;;4.40;;
2854;SDS011;1435;49.472;10.940;2024-01-16T18:45:23;4.23;;;3.83;;
2854;SDS011;1435;49.472;10.940;2024-01-16T18:50:27;4.33;;;3.30;;
2854;SDS011;1435;49.472;10.940;2024-01-16T18:55:32;4.30;;;3.77;;
2854;SDS011;1435;49.472;10.940;2024-01-16T19:00:36;6.07;;;4.60;;
2854;SDS011;1435;49.472;10.940;2024-01-16T19:05:39;4.30;;;4.00;;
2854;SDS011;1435;49.472;10.940;2024-01-16T19:10:40;3.77;;;3.33;;
2854;SDS011;1435;49.472;10.940;2024-01-16T19:15:42;5.20;;;3.83;;
2854;SDS011;1435;49.472;10.940;2024-01-16T19:20:45;3.73;;;3.20;;
2854;SDS011;1435;49.472;10.940;2024-01-16T19:25:47;4.50;;;4.10;;
2854;SDS011;1435;49.472;10.940;2024-01-16T19:30:49;5.23;;;4.10;;
2854;SDS011;1435;49.472;10.940;2024-01-16T19:35:52;4.73;;;4.03;;
2854;SDS011;1435;49.472;10.940;2024-01-16T19:40:55;6.90;;;4.37;;
2854;SDS011;1435;49.472;10.940;2024-01-16T19:45:57;4.27;;;3.00;;
2854;SDS011;1435;49.472;10.940;2024-01-16T19:51:00;7.83;;;3.43;;
2854;SDS011;1435;49.472;10.940;2024-01-16T19:56:02;7.57;;;3.47;;
2854;SDS011;1435;49.472;10.940;2024-01-16T20:01:06;3.57;;;3.20;;
2854;SDS011;1435;49.472;10.940;2024-01-16T20:06:11;3.53;;;3.23;;
2854;SDS011;1435;49.472;10.940;2024-01-16T20:11:13;5.07;;;3.70;;
2854;SDS011;1435;49.472;10.940;2024-01-16T20:16:16;4.50;;;3.80;;
2854;SDS011;1435;49.472;10.940;2024-01-16T20:21:19;4.50;;;4.10;;
2854;SDS011;1435;49.472;10.940;2024-01-16T20:26:21;7.63;;;3.97;;
2854;SDS011;1435;49.472;10.940;2024-01-16T20:31:23;4.40;;;4.03;;
2854;SDS011;1435;49.472;10.940;2024-01-16T20:36:26;5.13;;;3.63;;
2854;SDS011;1435;49.472;10.940;2024-01-16T20:41:27;4.00;;;3.60;;
2854;SDS011;1435;49.472;10.940;2024-01-16T20:46:29;4.30;;;3.90;;
2854;SDS011;1435;49.472;10.940;2024-01-16T20:51:32;5.20;;;4.70;;
2854;SDS011;1435;49.472;10.940;2024-01-16T20:56:34;4.30;;;3.37;;
2854;SDS011;1435;49.472;10.940;2024-01-16T21:01:39;5.87;;;4.20;;
2854;SDS011;1435;49.472;10.940;2024-01-16T21:06:42;4.47;;;4.07;;
2854;SDS011;1435;49.472;10.940;2024-01-16T21:11:44;4.80;;;4.33;;
2854;SDS011;1435;49.472;10.940;2024-01-16T21:16:46;8.40;;;5.90;;
2854;SDS011;1435;49.472;10.940;2024-01-16T21:21:49;7.97;;;5.10;;
2854;SDS011;1435;49.472;10.940;2024-01-16T21:26:54;5.83;;;4.83;;
2854;SDS011;1435;49.472;10.940;2024-01-16T21:31:55;8.97;;;4.93;;
2854;SDS011;1435;49.472;10.940;2024-01-16T21:36:59;5.70;;;5.10;;
2854;SDS011;1435;49.472;10.940;2024-01-16T21:42:00;5.50;;;5.00;;
2854;SDS011;1435;49.472;10.940;2024-01-16T21:47:03;8.30;;;7.20;;
2854;SDS011;1435;49.472;10.940;2024-01-16T21:52:06;8.30;;;7.30;;
2854;SDS011;1435;49.472;10.940;2024-01-16T21:57:08;10.17;;;6.80;;
2854;SDS011;1435;49.472;10.940;2024-01-16T22:02:09;8.30;;;6.30;;
2854;SDS011;1435;49.472;10.940;2024-01-16T22:07:14;11.10;;;6.77;;
2854;SDS011;1435;49.472;10.940;2024-01-16T22:12:16;9.53;;;6.23;;
2854;SDS011;1435;49.472;10.940;2024-01-16T22:17:17;9.97;;;5.77;;
2854;SDS011;1435;49.472;10.940;2024-01-16T22:22:20;11.27;;;8.27;;
2854;SDS011;1435;49.472;10.940;2024-01-16T22:27:22;9.97;;;6.70;;
2854;SDS011;1435;49.472;10.940;2024-01-16T22:32:24;5.40;;;5.00;;
2854;SDS011;1435;49.472;10.940;2024-01-16T22:37:27;6.40;;;4.97;;
2854;SDS011;1435;49.472;10.940;2024-01-16T22:42:30;5.90;;;5.40;;
2854;SDS011;1435;49.472;10.940;2024-01-16T22:47:32;8.67;;;4.90;;
2854;SDS011;1435;49.472;10.940;2024-01-16T22:52:35;6.00;;;5.40;;
2854;SDS011;1435;49.472;10.940;2024-01-16T22:57:36;5.90;;;5.40;;
2854;SDS011;1435;49.472;10.940;2024-01-16T23:02:38;9.13;;;4.97;;
2854;SDS011;1435;49.472;10.940;2024-01-16T23:07:41;6.23;;;5.63;;
2854;SDS011;1435;49.472;10.940;2024-01-16T23:12:44;8.87;;;6.10;;
2854;SDS011;1435;49.472;10.940;2024-01-16T23:17:46;8.53;;;5.37;;
2854;SDS011;1435;49.472;10.940;2024-01-16T23:22:49;7.13;;;6.10;;
2854;SDS011;1435;49.472;10.940;2024-01-16T23:27:51;5.10;;;4.70;;
2854;SDS011;1435;49.472;10.940;2024-01-16T23:32:52;13.00;;;6.00;;
2854;SDS011;1435;49.472;10.940;2024-01-16T23:37:55;6.87;;;6.07;;
2854;SDS011;1435;49.472;10.940;2024-01-16T23:42:59;8.67;;;6.40;;
2854;SDS011;1435;49.472;10.940;2024-01-16T23:48:00;6.50;;;5.57;;
2854;SDS011;1435;49.472;10.940;2024-01-16T23:53:05;6.07;;;4.93;;
2854;SDS011;1435;49.472;10.940;2024-01-16T23:58:07;7.97;;;5.77;;
